sensor_id;sensor_type;location;lat;lon;timestamp;temperature;humidity
8338;DHT22;4206;48.634;9.516;2023-09-19T00:03:25;17.20;99.90
8338;DHT22;4206;48.634;9.516;2023-09-19T00:09:46;17.00;99.90
8338;DHT22;4206;48.634;9.516;2023-09-19T00:36:12;17.10;99.90
8338;DHT22;4206;48.634;9.516;2023-09-19T00:38:39;17.00;99.90
8338;DHT22;4206;48.634;9.516;2023-09-19T00:41:24;17.10;99.90
8338;DHT22;4206;48.634;9.516;2023-09-19T00:44:13;17.20;99.90
8338;DHT22;4206;48.634;9.516;2023-09-19T00:54:04;17.10;99.90
8338;DHT22;4206;48.634;9.516;2023-09-19T01:03:14;16.90;99.90
8338;DHT22;4206;48.634;9.516;2023-09-19T01:18:02;16.70;99.90
8338;DHT22;4206;48.634;9.516;2023-09-19T01:32:03;16.70;99.90
8338;DHT22;4206;48.634;9.516;2023-09-19T01:34:47;16.50;99.90
8338;DHT22;4206;48.634;9.516;2023-09-19T01:37:16;16.50;99.90
8338;DHT22;4206;48.634;9.516;2023-09-19T01:39:51;16.50;99.90
8338;DHT22;4206;48.634;9.516;2023-09-19T01:45:16;16.60;99.90
8338;DHT22;4206;48.634;9.516;2023-09-19T01:47:50;16.40;99.90
8338;DHT22;4206;48.634;9.516;2023-09-19T01:50:30;16.40;99.90
8338;DHT22;4206;48.634;9.516;2023-09-19T01:53:05;16.40;99.90
8338;DHT22;4206;48.634;9.516;2023-09-19T01:55:37;16.40;99.90
8338;DHT22;4206;48.634;9.516;2023-09-19T02:00:43;16.40;99.90
8338;DHT22;4206;48.634;9.516;2023-09-19T02:03:11;16.40;99.90
8338;DHT22;4206;48.634;9.516;2023-09-19T02:05:39;16.40;99.90
8338;DHT22;4206;48.634;9.516;2023-09-19T02:08:06;16.30;99.90
8338;DHT22;4206;48.634;9.516;2023-09-19T02:10:33;16.40;99.90
8338;DHT22;4206;48.634;9.516;2023-09-19T02:13:01;16.30;99.90
8338;DHT22;4206;48.634;9.516;2023-09-19T02:15:31;16.30;99.90
8338;DHT22;4206;48.634;9.516;2023-09-19T02:18:01;16.30;99.90
8338;DHT22;4206;48.634;9.516;2023-09-19T02:20:31;16.40;99.90
8338;DHT22;4206;48.634;9.516;2023-09-19T02:23:01;16.40;99.90
8338;DHT22;4206;48.634;9.516;2023-09-19T02:25:29;16.40;99.90
8338;DHT22;4206;48.634;9.516;2023-09-19T02:27:58;16.40;99.90
8338;DHT22;4206;48.634;9.516;2023-09-19T02:30:29;16.40;99.90
8338;DHT22;4206;48.634;9.516;2023-09-19T02:33:01;16.40;99.90
8338;DHT22;4206;48.634;9.516;2023-09-19T02:35:29;16.40;99.90
8338;DHT22;4206;48.634;9.516;2023-09-19T02:38:07;16.30;99.90
8338;DHT22;4206;48.634;9.516;2023-09-19T02:40:34;16.40;99.90
8338;DHT22;4206;48.634;9.516;2023-09-19T02:43:03;16.40;99.90
8338;DHT22;4206;48.634;9.516;2023-09-19T02:45:31;16.40;99.90
8338;DHT22;4206;48.634;9.516;2023-09-19T02:47:59;16.30;99.90
8338;DHT22;4206;48.634;9.516;2023-09-19T02:50:26;16.40;99.90
8338;DHT22;4206;48.634;9.516;2023-09-19T02:52:55;16.40;99.90
8338;DHT22;4206;48.634;9.516;2023-09-19T02:55:39;16.40;99.90
8338;DHT22;4206;48.634;9.516;2023-09-19T02:58:07;16.40;99.90
8338;DHT22;4206;48.634;9.516;2023-09-19T03:00:36;16.30;99.90
8338;DHT22;4206;48.634;9.516;2023-09-19T03:03:03;16.20;99.90
8338;DHT22;4206;48.634;9.516;2023-09-19T03:05:38;16.20;99.90
8338;DHT22;4206;48.634;9.516;2023-09-19T03:08:07;16.10;99.90
8338;DHT22;4206;48.634;9.516;2023-09-19T03:10:50;16.30;99.90
8338;DHT22;4206;48.634;9.516;2023-09-19T03:13:17;16.20;99.90
8338;DHT22;4206;48.634;9.516;2023-09-19T03:15:45;16.30;99.90
8338;DHT22;4206;48.634;9.516;2023-09-19T03:18:28;16.30;99.90
8338;DHT22;4206;48.634;9.516;2023-09-19T03:21:01;16.20;99.90
8338;DHT22;4206;48.634;9.516;2023-09-19T03:23:35;16.20;99.90
8338;DHT22;4206;48.634;9.516;2023-09-19T03:26:18;16.10;99.90
8338;DHT22;4206;48.634;9.516;2023-09-19T03:28:59;16.20;99.90
8338;DHT22;4206;48.634;9.516;2023-09-19T03:31:26;16.10;99.90
8338;DHT22;4206;48.634;9.516;2023-09-19T03:33:54;16.20;99.90
8338;DHT22;4206;48.634;9.516;2023-09-19T03:36:21;16.20;99.90
8338;DHT22;4206;48.634;9.516;2023-09-19T03:38:51;16.20;99.90
8338;DHT22;4206;48.634;9.516;2023-09-19T03:41:32;16.20;99.90
8338;DHT22;4206;48.634;9.516;2023-09-19T03:44:22;16.30;99.90
8338;DHT22;4206;48.634;9.516;2023-09-19T03:46:50;16.30;99.90
8338;DHT22;4206;48.634;9.516;2023-09-19T03:49:34;16.40;99.90
8338;DHT22;4206;48.634;9.516;2023-09-19T03:52:05;16.50;99.90
8338;DHT22;4206;48.634;9.516;2023-09-19T03:54:53;16.50;99.90
8338;DHT22;4206;48.634;9.516;2023-09-19T03:57:37;16.40;99.90
8338;DHT22;4206;48.634;9.516;2023-09-19T04:00:12;16.50;99.90
8338;DHT22;4206;48.634;9.516;2023-09-19T04:02:46;16.50;99.90
8338;DHT22;4206;48.634;9.516;2023-09-19T04:05:32;16.50;99.90
8338;DHT22;4206;48.634;9.516;2023-09-19T04:08:09;16.60;99.90
8338;DHT22;4206;48.634;9.516;2023-09-19T04:10:36;16.80;99.90
8338;DHT22;4206;48.634;9.516;2023-09-19T04:13:05;16.70;99.90
8338;DHT22;4206;48.634;9.516;2023-09-19T04:15:59;16.70;99.90
8338;DHT22;4206;48.634;9.516;2023-09-19T04:18:26;16.70;99.90
8338;DHT22;4206;48.634;9.516;2023-09-19T04:20:53;16.70;99.90
8338;DHT22;4206;48.634;9.516;2023-09-19T04:23:21;16.60;99.90
8338;DHT22;4206;48.634;9.516;2023-09-19T04:25:48;16.80;99.90
8338;DHT22;4206;48.634;9.516;2023-09-19T04:28:15;16.80;99.90
8338;DHT22;4206;48.634;9.516;2023-09-19T04:30:43;16.80;99.90
8338;DHT22;4206;48.634;9.516;2023-09-19T04:33:10;16.80;99.90
8338;DHT22;4206;48.634;9.516;2023-09-19T04:35:37;16.90;99.90
8338;DHT22;4206;48.634;9.516;2023-09-19T04:38:05;16.80;99.90
8338;DHT22;4206;48.634;9.516;2023-09-19T04:40:34;16.80;99.90
8338;DHT22;4206;48.634;9.516;2023-09-19T04:43:01;16.80;99.90
8338;DHT22;4206;48.634;9.516;2023-09-19T04:45:29;16.70;99.90
8338;DHT22;4206;48.634;9.516;2023-09-19T04:48:01;16.60;99.90
8338;DHT22;4206;48.634;9.516;2023-09-19T04:50:29;16.60;99.90
8338;DHT22;4206;48.634;9.516;2023-09-19T04:52:56;16.50;99.90
8338;DHT22;4206;48.634;9.516;2023-09-19T04:55:23;16.40;99.90
8338;DHT22;4206;48.634;9.516;2023-09-19T04:57:51;16.30;99.90
8338;DHT22;4206;48.634;9.516;2023-09-19T05:00:23;16.30;99.90
8338;DHT22;4206;48.634;9.516;2023-09-19T05:02:51;16.30;99.90
8338;DHT22;4206;48.634;9.516;2023-09-19T05:05:19;16.30;99.90
8338;DHT22;4206;48.634;9.516;2023-09-19T05:07:53;16.20;99.90
8338;DHT22;4206;48.634;9.516;2023-09-19T05:10:21;16.00;99.90
8338;DHT22;4206;48.634;9.516;2023-09-19T05:12:49;15.90;99.90
8338;DHT22;4206;48.634;9.516;2023-09-19T05:15:22;16.20;99.90
8338;DHT22;4206;48.634;9.516;2023-09-19T05:17:50;16.10;99.90
8338;DHT22;4206;48.634;9.516;2023-09-19T05:20:22;16.10;99.90
8338;DHT22;4206;48.634;9.516;2023-09-19T05:25:31;16.50;99.90
8338;DHT22;4206;48.634;9.516;2023-09-19T05:28:03;16.50;99.90
8338;DHT22;4206;48.634;9.516;2023-09-19T05:30:32;16.60;99.90
8338;DHT22;4206;48.634;9.516;2023-09-19T05:32:59;16.50;99.90
8338;DHT22;4206;48.634;9.516;2023-09-19T05:35:26;16.80;99.90
8338;DHT22;4206;48.634;9.516;2023-09-19T05:37:54;16.80;99.90
8338;DHT22;4206;48.634;9.516;2023-09-19T05:40:25;16.90;99.90
8338;DHT22;4206;48.634;9.516;2023-09-19T05:42:52;17.00;99.90
8338;DHT22;4206;48.634;9.516;2023-09-19T05:45:19;17.00;99.90
8338;DHT22;4206;48.634;9.516;2023-09-19T05:47:50;16.80;99.90
8338;DHT22;4206;48.634;9.516;2023-09-19T05:50:18;16.70;99.90
8338;DHT22;4206;48.634;9.516;2023-09-19T05:52:54;16.70;99.90
8338;DHT22;4206;48.634;9.516;2023-09-19T05:55:23;16.50;99.90
8338;DHT22;4206;48.634;9.516;2023-09-19T05:57:53;16.30;99.90
8338;DHT22;4206;48.634;9.516;2023-09-19T06:00:21;16.40;99.90
8338;DHT22;4206;48.634;9.516;2023-09-19T06:02:53;16.30;99.90
8338;DHT22;4206;48.634;9.516;2023-09-19T06:05:22;16.30;99.90
8338;DHT22;4206;48.634;9.516;2023-09-19T06:07:49;16.20;99.90
8338;DHT22;4206;48.634;9.516;2023-09-19T06:10:25;16.20;99.90
8338;DHT22;4206;48.634;9.516;2023-09-19T06:12:52;16.10;99.90
8338;DHT22;4206;48.634;9.516;2023-09-19T06:15:19;16.10;99.90
8338;DHT22;4206;48.634;9.516;2023-09-19T06:17:51;16.00;99.90
8338;DHT22;4206;48.634;9.516;2023-09-19T06:20:18;16.00;99.90
8338;DHT22;4206;48.634;9.516;2023-09-19T06:22:46;15.80;99.90
8338;DHT22;4206;48.634;9.516;2023-09-19T06:25:15;15.80;99.90
8338;DHT22;4206;48.634;9.516;2023-09-19T06:27:51;15.70;99.90
8338;DHT22;4206;48.634;9.516;2023-09-19T06:30:24;15.70;99.90
8338;DHT22;4206;48.634;9.516;2023-09-19T06:33:00;15.60;99.90
8338;DHT22;4206;48.634;9.516;2023-09-19T06:35:29;15.60;99.90
8338;DHT22;4206;48.634;9.516;2023-09-19T06:38:07;15.60;99.90
8338;DHT22;4206;48.634;9.516;2023-09-19T06:40:34;15.60;99.90
8338;DHT22;4206;48.634;9.516;2023-09-19T06:43:05;15.60;99.90
8338;DHT22;4206;48.634;9.516;2023-09-19T06:45:32;15.50;99.90
8338;DHT22;4206;48.634;9.516;2023-09-19T06:47:59;15.40;99.90
8338;DHT22;4206;48.634;9.516;2023-09-19T06:50:27;15.50;99.90
8338;DHT22;4206;48.634;9.516;2023-09-19T06:52:55;15.50;99.90
8338;DHT22;4206;48.634;9.516;2023-09-19T06:55:25;15.50;99.90
8338;DHT22;4206;48.634;9.516;2023-09-19T06:57:56;15.40;99.90
8338;DHT22;4206;48.634;9.516;2023-09-19T07:00:23;15.50;99.90
8338;DHT22;4206;48.634;9.516;2023-09-19T07:02:59;15.50;99.90
8338;DHT22;4206;48.634;9.516;2023-09-19T07:05:28;15.60;99.90
8338;DHT22;4206;48.634;9.516;2023-09-19T07:07:56;15.50;99.90
8338;DHT22;4206;48.634;9.516;2023-09-19T07:10:27;15.50;99.90
8338;DHT22;4206;48.634;9.516;2023-09-19T07:12:57;15.40;99.90
8338;DHT22;4206;48.634;9.516;2023-09-19T07:15:27;15.50;99.90
8338;DHT22;4206;48.634;9.516;2023-09-19T07:17:56;15.50;99.90
8338;DHT22;4206;48.634;9.516;2023-09-19T07:20:24;15.50;99.90
8338;DHT22;4206;48.634;9.516;2023-09-19T07:22:53;15.50;99.90
8338;DHT22;4206;48.634;9.516;2023-09-19T07:25:23;15.50;99.90
8338;DHT22;4206;48.634;9.516;2023-09-19T07:27:51;15.50;99.90
8338;DHT22;4206;48.634;9.516;2023-09-19T07:30:19;15.50;99.90
8338;DHT22;4206;48.634;9.516;2023-09-19T07:32:46;15.50;99.90
8338;DHT22;4206;48.634;9.516;2023-09-19T07:35:14;15.60;99.90
8338;DHT22;4206;48.634;9.516;2023-09-19T07:37:41;15.70;99.90
8338;DHT22;4206;48.634;9.516;2023-09-19T07:40:09;15.90;99.90
8338;DHT22;4206;48.634;9.516;2023-09-19T07:42:37;16.30;99.90
8338;DHT22;4206;48.634;9.516;2023-09-19T07:45:07;16.60;99.90
8338;DHT22;4206;48.634;9.516;2023-09-19T07:47:34;16.80;99.90
8338;DHT22;4206;48.634;9.516;2023-09-19T07:50:03;17.00;99.90
8338;DHT22;4206;48.634;9.516;2023-09-19T07:52:30;17.20;99.90
8338;DHT22;4206;48.634;9.516;2023-09-19T07:55:00;17.30;99.90
8338;DHT22;4206;48.634;9.516;2023-09-19T07:57:28;17.40;99.90
8338;DHT22;4206;48.634;9.516;2023-09-19T07:59:55;17.50;99.90
8338;DHT22;4206;48.634;9.516;2023-09-19T08:02:23;17.70;99.90
8338;DHT22;4206;48.634;9.516;2023-09-19T08:04:50;18.10;99.90
8338;DHT22;4206;48.634;9.516;2023-09-19T08:07:19;18.30;99.90
8338;DHT22;4206;48.634;9.516;2023-09-19T08:09:46;18.30;99.90
8338;DHT22;4206;48.634;9.516;2023-09-19T08:12:13;18.60;99.90
8338;DHT22;4206;48.634;9.516;2023-09-19T08:14:41;18.80;99.90
8338;DHT22;4206;48.634;9.516;2023-09-19T08:17:08;18.90;99.90
8338;DHT22;4206;48.634;9.516;2023-09-19T08:19:35;19.20;99.90
8338;DHT22;4206;48.634;9.516;2023-09-19T08:22:07;19.60;99.90
8338;DHT22;4206;48.634;9.516;2023-09-19T08:24:37;19.60;99.90
8338;DHT22;4206;48.634;9.516;2023-09-19T08:27:04;19.50;99.90
8338;DHT22;4206;48.634;9.516;2023-09-19T08:31:59;20.40;99.90
8338;DHT22;4206;48.634;9.516;2023-09-19T08:34:27;20.20;99.90
8338;DHT22;4206;48.634;9.516;2023-09-19T08:36:54;19.80;99.90
8338;DHT22;4206;48.634;9.516;2023-09-19T08:39:24;19.80;99.90
8338;DHT22;4206;48.634;9.516;2023-09-19T08:42:00;19.60;99.90
8338;DHT22;4206;48.634;9.516;2023-09-19T08:44:28;19.60;99.90
8338;DHT22;4206;48.634;9.516;2023-09-19T08:47:10;19.90;99.90
8338;DHT22;4206;48.634;9.516;2023-09-19T08:49:56;20.60;99.90
8338;DHT22;4206;48.634;9.516;2023-09-19T08:52:32;21.10;99.90
8338;DHT22;4206;48.634;9.516;2023-09-19T08:55:02;21.50;99.90
8338;DHT22;4206;48.634;9.516;2023-09-19T08:57:38;21.30;99.90
8338;DHT22;4206;48.634;9.516;2023-09-19T09:00:08;21.20;99.90
8338;DHT22;4206;48.634;9.516;2023-09-19T09:02:39;20.50;99.90
8338;DHT22;4206;48.634;9.516;2023-09-19T09:05:09;20.20;99.90
8338;DHT22;4206;48.634;9.516;2023-09-19T09:07:37;20.00;99.90
8338;DHT22;4206;48.634;9.516;2023-09-19T09:10:06;20.00;99.90
8338;DHT22;4206;48.634;9.516;2023-09-19T09:12:35;20.00;99.90
8338;DHT22;4206;48.634;9.516;2023-09-19T09:15:03;20.00;99.90
8338;DHT22;4206;48.634;9.516;2023-09-19T09:17:30;19.90;99.90
8338;DHT22;4206;48.634;9.516;2023-09-19T09:19:59;19.80;99.90
8338;DHT22;4206;48.634;9.516;2023-09-19T09:22:26;19.50;99.90
8338;DHT22;4206;48.634;9.516;2023-09-19T09:24:56;19.20;99.90
8338;DHT22;4206;48.634;9.516;2023-09-19T09:27:25;19.30;99.90
8338;DHT22;4206;48.634;9.516;2023-09-19T09:29:53;19.20;99.90
8338;DHT22;4206;48.634;9.516;2023-09-19T09:32:24;19.30;99.90
8338;DHT22;4206;48.634;9.516;2023-09-19T09:34:53;19.50;99.90
8338;DHT22;4206;48.634;9.516;2023-09-19T09:37:23;19.40;99.90
8338;DHT22;4206;48.634;9.516;2023-09-19T09:39:57;19.60;99.90
8338;DHT22;4206;48.634;9.516;2023-09-19T09:42:34;19.60;99.90
8338;DHT22;4206;48.634;9.516;2023-09-19T09:45:18;19.50;99.90
8338;DHT22;4206;48.634;9.516;2023-09-19T09:47:48;19.60;99.90
8338;DHT22;4206;48.634;9.516;2023-09-19T09:50:29;20.20;99.90
8338;DHT22;4206;48.634;9.516;2023-09-19T09:58:27;21.10;99.90
8338;DHT22;4206;48.634;9.516;2023-09-19T10:00:59;20.90;99.90
8338;DHT22;4206;48.634;9.516;2023-09-19T10:03:37;21.10;99.90
8338;DHT22;4206;48.634;9.516;2023-09-19T10:06:08;21.30;99.90
8338;DHT22;4206;48.634;9.516;2023-09-19T10:11:44;22.60;99.90
8338;DHT22;4206;48.634;9.516;2023-09-19T10:14:13;22.30;99.90
8338;DHT22;4206;48.634;9.516;2023-09-19T10:16:49;22.10;99.90
8338;DHT22;4206;48.634;9.516;2023-09-19T10:19:36;22.40;99.90
8338;DHT22;4206;48.634;9.516;2023-09-19T10:22:05;22.70;99.90
8338;DHT22;4206;48.634;9.516;2023-09-19T10:24:36;22.70;99.90
8338;DHT22;4206;48.634;9.516;2023-09-19T10:27:23;22.50;99.90
8338;DHT22;4206;48.634;9.516;2023-09-19T10:29:54;22.00;99.90
8338;DHT22;4206;48.634;9.516;2023-09-19T10:32:22;21.70;99.90
8338;DHT22;4206;48.634;9.516;2023-09-19T10:34:51;21.80;99.90
8338;DHT22;4206;48.634;9.516;2023-09-19T10:37:24;22.00;99.90
8338;DHT22;4206;48.634;9.516;2023-09-19T10:39:55;22.00;99.90
8338;DHT22;4206;48.634;9.516;2023-09-19T10:42:23;22.00;99.90
8338;DHT22;4206;48.634;9.516;2023-09-19T10:44:57;22.30;99.90
8338;DHT22;4206;48.634;9.516;2023-09-19T10:47:27;22.30;99.90
8338;DHT22;4206;48.634;9.516;2023-09-19T10:49:54;22.30;99.90
8338;DHT22;4206;48.634;9.516;2023-09-19T10:52:25;22.00;99.90
8338;DHT22;4206;48.634;9.516;2023-09-19T10:54:55;21.90;99.90
8338;DHT22;4206;48.634;9.516;2023-09-19T10:57:24;21.90;99.90
8338;DHT22;4206;48.634;9.516;2023-09-19T11:00:10;21.70;99.90
8338;DHT22;4206;48.634;9.516;2023-09-19T11:05:41;22.10;99.90
8338;DHT22;4206;48.634;9.516;2023-09-19T11:08:08;22.30;99.90
8338;DHT22;4206;48.634;9.516;2023-09-19T11:10:51;22.50;99.90
8338;DHT22;4206;48.634;9.516;2023-09-19T11:13:26;22.70;99.90
8338;DHT22;4206;48.634;9.516;2023-09-19T11:26:49;23.30;99.90
8338;DHT22;4206;48.634;9.516;2023-09-19T11:29:25;23.40;99.90
8338;DHT22;4206;48.634;9.516;2023-09-19T11:31:52;23.50;99.90
8338;DHT22;4206;48.634;9.516;2023-09-19T11:40:07;23.70;99.90
8338;DHT22;4206;48.634;9.516;2023-09-19T11:48:15;24.20;99.90
8338;DHT22;4206;48.634;9.516;2023-09-19T11:50:43;23.90;99.90
8338;DHT22;4206;48.634;9.516;2023-09-19T11:53:12;23.30;99.90
8338;DHT22;4206;48.634;9.516;2023-09-19T11:55:39;23.00;99.90
8338;DHT22;4206;48.634;9.516;2023-09-19T11:58:08;22.70;99.90
8338;DHT22;4206;48.634;9.516;2023-09-19T12:00:38;23.00;99.90
8338;DHT22;4206;48.634;9.516;2023-09-19T12:03:09;23.60;99.90
8338;DHT22;4206;48.634;9.516;2023-09-19T12:05:37;23.90;99.90
8338;DHT22;4206;48.634;9.516;2023-09-19T12:08:05;24.00;99.90
8338;DHT22;4206;48.634;9.516;2023-09-19T12:10:50;23.80;99.90
8338;DHT22;4206;48.634;9.516;2023-09-19T12:13:18;23.80;99.90
8338;DHT22;4206;48.634;9.516;2023-09-19T12:15:46;24.20;99.90
8338;DHT22;4206;48.634;9.516;2023-09-19T12:18:30;24.60;99.90
8338;DHT22;4206;48.634;9.516;2023-09-19T12:20:57;25.40;99.90
8338;DHT22;4206;48.634;9.516;2023-09-19T12:23:25;25.80;99.90
8338;DHT22;4206;48.634;9.516;2023-09-19T12:25:53;25.90;99.90
8338;DHT22;4206;48.634;9.516;2023-09-19T12:28:27;26.30;99.90
8338;DHT22;4206;48.634;9.516;2023-09-19T12:30:54;26.60;99.90
8338;DHT22;4206;48.634;9.516;2023-09-19T12:33:22;27.20;99.90
8338;DHT22;4206;48.634;9.516;2023-09-19T12:35:52;27.40;99.90
8338;DHT22;4206;48.634;9.516;2023-09-19T12:40:52;28.30;99.90
8338;DHT22;4206;48.634;9.516;2023-09-19T12:43:19;28.50;99.90
8338;DHT22;4206;48.634;9.516;2023-09-19T12:45:46;29.40;99.90
8338;DHT22;4206;48.634;9.516;2023-09-19T12:48:20;29.30;99.90
8338;DHT22;4206;48.634;9.516;2023-09-19T12:51:05;29.70;99.90
8338;DHT22;4206;48.634;9.516;2023-09-19T12:53:35;30.50;99.90
8338;DHT22;4206;48.634;9.516;2023-09-19T12:56:13;30.50;99.90
8338;DHT22;4206;48.634;9.516;2023-09-19T12:58:50;31.00;99.90
8338;DHT22;4206;48.634;9.516;2023-09-19T13:01:18;31.80;99.20
8338;DHT22;4206;48.634;9.516;2023-09-19T13:03:45;32.00;97.60
8338;DHT22;4206;48.634;9.516;2023-09-19T13:06:12;31.80;96.30
8338;DHT22;4206;48.634;9.516;2023-09-19T13:08:43;31.20;96.30
8338;DHT22;4206;48.634;9.516;2023-09-19T13:11:17;31.30;96.90
8338;DHT22;4206;48.634;9.516;2023-09-19T13:13:47;29.70;97.20
8338;DHT22;4206;48.634;9.516;2023-09-19T13:16:17;28.80;99.00
8338;DHT22;4206;48.634;9.516;2023-09-19T13:18:54;28.60;98.90
8338;DHT22;4206;48.634;9.516;2023-09-19T13:21:31;29.40;98.30
8338;DHT22;4206;48.634;9.516;2023-09-19T13:24:23;30.30;98.10
8338;DHT22;4206;48.634;9.516;2023-09-19T13:26:52;31.00;96.20
8338;DHT22;4206;48.634;9.516;2023-09-19T13:29:19;30.30;95.50
8338;DHT22;4206;48.634;9.516;2023-09-19T13:31:48;30.80;95.70
8338;DHT22;4206;48.634;9.516;2023-09-19T13:34:15;30.80;95.70
8338;DHT22;4206;48.634;9.516;2023-09-19T13:36:44;29.10;95.60
8338;DHT22;4206;48.634;9.516;2023-09-19T13:39:11;28.30;96.20
8338;DHT22;4206;48.634;9.516;2023-09-19T13:41:39;26.90;97.10
8338;DHT22;4206;48.634;9.516;2023-09-19T13:44:06;26.00;98.70
8338;DHT22;4206;48.634;9.516;2023-09-19T13:46:35;25.40;99.90
8338;DHT22;4206;48.634;9.516;2023-09-19T13:49:02;25.10;99.90
8338;DHT22;4206;48.634;9.516;2023-09-19T13:51:31;26.30;99.90
8338;DHT22;4206;48.634;9.516;2023-09-19T13:53:59;27.80;98.60
8338;DHT22;4206;48.634;9.516;2023-09-19T13:56:26;28.10;97.10
8338;DHT22;4206;48.634;9.516;2023-09-19T13:58:54;28.50;97.60
8338;DHT22;4206;48.634;9.516;2023-09-19T14:01:21;29.20;95.60
8338;DHT22;4206;48.634;9.516;2023-09-19T14:03:48;28.40;95.70
8338;DHT22;4206;48.634;9.516;2023-09-19T14:06:17;28.80;96.10
8338;DHT22;4206;48.634;9.516;2023-09-19T14:08:44;28.90;96.20
8338;DHT22;4206;48.634;9.516;2023-09-19T14:11:16;29.40;96.10
8338;DHT22;4206;48.634;9.516;2023-09-19T14:13:43;29.00;96.50
8338;DHT22;4206;48.634;9.516;2023-09-19T14:16:16;29.10;96.00
8338;DHT22;4206;48.634;9.516;2023-09-19T14:18:45;29.00;96.20
8338;DHT22;4206;48.634;9.516;2023-09-19T14:21:13;29.30;95.60
8338;DHT22;4206;48.634;9.516;2023-09-19T14:23:41;29.70;95.00
8338;DHT22;4206;48.634;9.516;2023-09-19T14:26:10;29.40;95.30
8338;DHT22;4206;48.634;9.516;2023-09-19T14:28:37;28.60;95.20
8338;DHT22;4206;48.634;9.516;2023-09-19T14:31:07;29.30;95.50
8338;DHT22;4206;48.634;9.516;2023-09-19T14:33:35;29.20;95.70
8338;DHT22;4206;48.634;9.516;2023-09-19T14:36:04;28.90;95.60
8338;DHT22;4206;48.634;9.516;2023-09-19T14:38:34;29.00;96.80
8338;DHT22;4206;48.634;9.516;2023-09-19T14:41:02;28.20;96.70
8338;DHT22;4206;48.634;9.516;2023-09-19T14:43:30;27.60;96.20
8338;DHT22;4206;48.634;9.516;2023-09-19T14:46:03;26.50;97.40
8338;DHT22;4206;48.634;9.516;2023-09-19T14:48:30;26.40;97.40
8338;DHT22;4206;48.634;9.516;2023-09-19T14:51:03;26.20;98.20
8338;DHT22;4206;48.634;9.516;2023-09-19T14:53:32;26.10;99.00
8338;DHT22;4206;48.634;9.516;2023-09-19T14:56:01;25.90;98.60
8338;DHT22;4206;48.634;9.516;2023-09-19T14:58:31;26.00;99.60
8338;DHT22;4206;48.634;9.516;2023-09-19T15:01:13;26.20;98.80
8338;DHT22;4206;48.634;9.516;2023-09-19T15:03:41;26.10;99.40
8338;DHT22;4206;48.634;9.516;2023-09-19T15:06:11;25.90;99.30
8338;DHT22;4206;48.634;9.516;2023-09-19T15:08:43;25.40;99.90
8338;DHT22;4206;48.634;9.516;2023-09-19T15:11:15;25.30;99.90
8338;DHT22;4206;48.634;9.516;2023-09-19T15:13:45;24.90;99.90
8338;DHT22;4206;48.634;9.516;2023-09-19T15:16:13;25.00;99.90
8338;DHT22;4206;48.634;9.516;2023-09-19T15:18:44;25.40;99.90
8338;DHT22;4206;48.634;9.516;2023-09-19T15:21:12;25.20;99.90
8338;DHT22;4206;48.634;9.516;2023-09-19T15:23:41;25.00;99.90
8338;DHT22;4206;48.634;9.516;2023-09-19T15:26:12;25.20;99.90
8338;DHT22;4206;48.634;9.516;2023-09-19T15:28:40;25.00;99.90
8338;DHT22;4206;48.634;9.516;2023-09-19T15:31:10;24.90;99.90
8338;DHT22;4206;48.634;9.516;2023-09-19T15:33:37;24.70;99.90
8338;DHT22;4206;48.634;9.516;2023-09-19T15:41:35;24.30;99.90
8338;DHT22;4206;48.634;9.516;2023-09-19T15:44:10;24.00;99.90
8338;DHT22;4206;48.634;9.516;2023-09-19T15:46:37;23.80;99.90
8338;DHT22;4206;48.634;9.516;2023-09-19T15:49:04;23.50;99.90
8338;DHT22;4206;48.634;9.516;2023-09-19T15:51:31;23.50;99.90
8338;DHT22;4206;48.634;9.516;2023-09-19T15:53:58;23.40;99.90
8338;DHT22;4206;48.634;9.516;2023-09-19T15:56:27;23.30;99.90
8338;DHT22;4206;48.634;9.516;2023-09-19T15:58:55;23.20;99.90
8338;DHT22;4206;48.634;9.516;2023-09-19T16:01:22;23.20;99.90
8338;DHT22;4206;48.634;9.516;2023-09-19T16:03:52;23.10;99.90
8338;DHT22;4206;48.634;9.516;2023-09-19T16:06:24;22.80;99.90
8338;DHT22;4206;48.634;9.516;2023-09-19T16:08:53;22.90;99.90
8338;DHT22;4206;48.634;9.516;2023-09-19T16:11:20;22.60;99.90
8338;DHT22;4206;48.634;9.516;2023-09-19T16:13:49;22.60;99.90
8338;DHT22;4206;48.634;9.516;2023-09-19T16:16:17;22.40;99.90
8338;DHT22;4206;48.634;9.516;2023-09-19T16:18:47;22.40;99.90
8338;DHT22;4206;48.634;9.516;2023-09-19T16:21:16;22.40;99.90
8338;DHT22;4206;48.634;9.516;2023-09-19T16:23:45;22.30;99.90
8338;DHT22;4206;48.634;9.516;2023-09-19T16:26:13;22.20;99.90
8338;DHT22;4206;48.634;9.516;2023-09-19T16:28:40;22.10;99.90
8338;DHT22;4206;48.634;9.516;2023-09-19T16:31:08;22.10;99.90
8338;DHT22;4206;48.634;9.516;2023-09-19T16:33:38;22.10;99.90
8338;DHT22;4206;48.634;9.516;2023-09-19T16:36:08;22.00;99.90
8338;DHT22;4206;48.634;9.516;2023-09-19T16:38:37;22.00;99.90
8338;DHT22;4206;48.634;9.516;2023-09-19T16:41:06;21.90;99.90
8338;DHT22;4206;48.634;9.516;2023-09-19T16:43:33;21.90;99.90
8338;DHT22;4206;48.634;9.516;2023-09-19T16:46:06;21.80;99.90
8338;DHT22;4206;48.634;9.516;2023-09-19T16:48:39;21.90;99.90
8338;DHT22;4206;48.634;9.516;2023-09-19T16:51:26;21.60;99.90
8338;DHT22;4206;48.634;9.516;2023-09-19T16:53:55;21.50;99.90
8338;DHT22;4206;48.634;9.516;2023-09-19T16:56:22;21.30;99.90
8338;DHT22;4206;48.634;9.516;2023-09-19T16:58:50;21.20;99.90
8338;DHT22;4206;48.634;9.516;2023-09-19T17:01:19;21.10;99.90
8338;DHT22;4206;48.634;9.516;2023-09-19T17:03:50;20.90;99.90
8338;DHT22;4206;48.634;9.516;2023-09-19T17:06:18;20.80;99.90
8338;DHT22;4206;48.634;9.516;2023-09-19T17:08:50;20.70;99.90
8338;DHT22;4206;48.634;9.516;2023-09-19T17:11:17;20.60;99.90
8338;DHT22;4206;48.634;9.516;2023-09-19T17:13:46;20.50;99.90
8338;DHT22;4206;48.634;9.516;2023-09-19T17:16:16;20.30;99.90
8338;DHT22;4206;48.634;9.516;2023-09-19T17:18:45;20.20;99.90
8338;DHT22;4206;48.634;9.516;2023-09-19T17:21:14;20.10;99.90
8338;DHT22;4206;48.634;9.516;2023-09-19T17:23:42;20.00;99.90
8338;DHT22;4206;48.634;9.516;2023-09-19T17:26:10;19.90;99.90
8338;DHT22;4206;48.634;9.516;2023-09-19T17:28:38;19.80;99.90
8338;DHT22;4206;48.634;9.516;2023-09-19T17:31:10;19.60;99.90
8338;DHT22;4206;48.634;9.516;2023-09-19T17:33:39;19.50;99.90
8338;DHT22;4206;48.634;9.516;2023-09-19T17:36:09;19.40;99.90
8338;DHT22;4206;48.634;9.516;2023-09-19T17:38:37;19.30;99.90
8338;DHT22;4206;48.634;9.516;2023-09-19T17:44:03;19.10;99.90
8338;DHT22;4206;48.634;9.516;2023-09-19T17:46:45;19.00;99.90
8338;DHT22;4206;48.634;9.516;2023-09-19T17:49:16;18.90;99.90
8338;DHT22;4206;48.634;9.516;2023-09-19T17:51:59;18.80;99.90
8338;DHT22;4206;48.634;9.516;2023-09-19T17:54:26;18.60;99.90
8338;DHT22;4206;48.634;9.516;2023-09-19T17:56:53;18.50;99.90
8338;DHT22;4206;48.634;9.516;2023-09-19T17:59:21;18.40;99.90
8338;DHT22;4206;48.634;9.516;2023-09-19T18:01:49;18.30;99.90
8338;DHT22;4206;48.634;9.516;2023-09-19T18:04:17;18.20;99.90
8338;DHT22;4206;48.634;9.516;2023-09-19T18:06:45;18.10;99.90
8338;DHT22;4206;48.634;9.516;2023-09-19T18:09:15;18.10;99.90
8338;DHT22;4206;48.634;9.516;2023-09-19T18:11:44;18.00;99.90
8338;DHT22;4206;48.634;9.516;2023-09-19T18:14:11;18.00;99.90
8338;DHT22;4206;48.634;9.516;2023-09-19T18:16:43;17.90;99.90
8338;DHT22;4206;48.634;9.516;2023-09-19T18:19:10;17.80;99.90
8338;DHT22;4206;48.634;9.516;2023-09-19T18:21:39;17.70;99.90
8338;DHT22;4206;48.634;9.516;2023-09-19T18:24:08;17.50;99.90
8338;DHT22;4206;48.634;9.516;2023-09-19T18:26:41;17.40;99.90